Terminal Aerodrome Forecast
Issued by NWS Bismarck, ND

Home | Current Version | Previous Version | Text Only | Print | Product List | Glossary Off
Versions: 1 2 3 4 5 6 7 8 9 10 11 12 13 14 15 16 17 18 19

000
FTUS43 KBIS 250700 AAA
TAFBIS
TAF AMD
KBIS 250742Z 2508/2606 11009KT 6SM -SN SCT015 OVC035
      TEMPO 2508/2512 2SM -SN BR BKN015 OVC025
     FM251200 03015KT P6SM -SN OVC025
     FM251600 36015KT P6SM OVC035
     FM252100 33016KT P6SM SCT035 BKN120=

USA.gov is the U.S. government's official web portal to all federal, state and local government web resources and services.